Date,TemperatureHighF,TemperatureAvgF,TemperatureLowF,DewpointHighF,DewpointAvgF,DewpointLowF,HumidityHigh,HumidityAvg,HumidityLow,PressureMaxIn,PressureMinIn,WindSpeedMaxMPH,WindSpeedAvgMPH,GustSpeedMaxMPH,PrecipitationSumIn
2013-7-1,92,76,64,61,55,43,74,51,20,29.65,29.57,0,0,12,0.00
2013-7-2,93,76,68,61,56,52,68,50,27,29.72,29.61,0,0,14,0.00
2013-7-3,92,76,65,63,55,48,74,52,23,29.72,29.49,0,0,12,0.00
2013-7-4,94,78,69,63,54,46,67,45,23,29.57,29.41,0,0,13,0.00
2013-7-5,74,66,60,55,52,46,75,61,44,29.61,29.49,0,0,14,0.00
2013-7-6,77,66,59,55,52,50,79,61,39,29.61,29.49,0,0,14,0.00
2013-7-7,81,67,59,55,52,50,74,59,34,29.65,29.53,0,0,12,0.00
2013-7-8,82,69,60,55,52,48,77,57,33,29.80,29.65,0,0,11,0.00
2013-7-9,88,72,59,61,53,45,83,54,23,29.88,29.68,0,0,11,0.00
2013-7-10,83,68,59,57,53,48,83,60,32,29.84,29.68,0,0,14,0.00
2013-7-11,76,65,59,55,52,48,82,65,42,29.76,29.68,0,0,14,0.00
2013-7-12,79,67,58,55,51,41,82,58,32,29.76,29.65,0,0,13,0.00
2013-7-13,84,70,59,55,49,41,73,50,24,29.80,29.68,0,0,12,0.00
2013-7-14,79,67,59,55,51,46,76,58,38,29.84,29.68,0,0,12,0.00
2013-7-15,74,64,59,55,52,48,82,67,43,29.76,29.61,0,0,15,0.00
2013-7-16,72,65,60,55,52,48,76,65,45,29.88,29.68,0,0,15,0.00
2013-7-17,75,66,61,57,54,52,79,67,45,30.00,29.88,0,0,13,0.00
2013-7-18,83,67,59,57,53,46,84,63,29,29.96,29.76,0,0,12,0.00
2013-7-19,83,67,58,57,53,50,85,63,32,29.80,29.61,0,0,12,0.00
2013-7-20,82,67,59,57,53,50,83,63,34,29.68,29.49,0,0,13,0.00
2013-7-21,82,68,60,57,52,48,78,58,35,29.68,29.53,0,0,11,0.00
2013-7-22,78,68,61,59,55,50,81,63,45,29.76,29.68,0,0,11,0.00
2013-7-23,83,72,64,59,54,48,71,54,32,29.84,29.72,0,0,12,0.00
2013-7-24,87,73,62,61,51,37,72,50,18,29.80,29.68,0,0,13,0.00
2013-7-25,83,71,62,57,51,43,72,52,25,29.88,29.76,0,0,12,0.00
2013-7-26,82,68,60,57,54,50,79,61,36,29.96,29.80,0,0,12,0.00
2013-7-27,79,68,61,61,55,52,83,65,41,29.88,29.65,0,0,13,0.00
2013-7-28,78,67,61,57,54,50,81,66,41,29.68,29.57,0,0,14,0.00
2013-7-29,76,65,60,55,53,50,82,65,41,29.84,29.65,0,0,15,0.00
2013-7-30,79,66,59,57,53,48,82,64,37,29.96,29.84,0,0,13,0.00
2013-7-31,78,66,60,55,53,48,82,65,36,29.96,29.88,0,0,13,0.00